Terminal Aerodrome Forecast
Issued by NWS

Home | Current Version | Previous Version | Text Only | Print | Product List | Glossary On
Versions: 1 2 3 4 5 6 7 8 9 10 11 12 13 14
000
FTUS43 KIND 180402 AAA
TAFLAF
TAF AMD
KLAF 180402Z 1804/1824 21006KT P6SM OVC050
     FM180500 21005KT P6SM BKN015
     FM180700 22006KT 4SM BR OVC003
     FM181200 24006KT 4SM BR OVC007
     FM181700 23009KT P6SM BKN015
     FM182200 23009KT P6SM BKN035
      AMD LTD TO CLD VIS AND WIND TIL 181400=

USA.gov is the U.S. government's official web portal to all federal, state and local government web resources and services.